x

Corpus Christi, Tx - 60nm Sse Of Corpus Christi, Tx (42020) Wave Buoy

4:50am - Fri 25th Jul 2014 All times are CDT. -5 hours from GMT.

  • Sig Wave height 1.6ft
  • Swell Direction
  • Peak Period 3s
  • Average Period 3s
  • Wind
    9mph, 11mph gusts
  • Sea Temp 80°f
  • Air Temp 82°f
  • Sea Pressure 1014.9mb
  • Corpus Christi, Tx - 60nm Sse Of Corpus Christi, Tx
  • Corpus Christi, Tx - 60nm Sse Of Corpus Christi, Tx

More Historic Weather Station data

Upgrade to MSW Pro to gain access to the past 30 days of data for over 8000 Wavebouys and Weather Stations around the globe.

Join Pro

Comparision Forecast

View Surf forecast
   
Fri 07/25 4:50am 1.6ft 3s 3s 9 11 mph 1014.9mb 80f 82f
3:50am 1.6ft 3s 3s 9 11 mph 1015.2mb 80f 82f
2:50am 1.6ft 3s 3s 11 13 mph 1015.3mb 80f 82f
1:50am 1.3ft 9s 3s 16 18 mph 1015.4mb 80f 83f
12:50am 1.3ft 9s 4s 11 16 mph 1015.7mb 81f 83f
Thu 07/24 11:50pm 1ft 8s 3s 13 16 mph 1015.5mb 81f 83f
10:50pm 1.3ft 3s 3s 11 13 mph 1015.2mb 81f 83f
9:50pm 1.3ft 2s 3s 11 13 mph 1014.6mb 82f 83f
8:50pm 1ft 8s 3s 13
mph
1014.4mb 83f 83f
7:50pm 1ft 8s 4s 11 13 mph 1014mb 83f 84f
6:50pm 1ft 5s 4s 9 11 mph 1013.7mb 83f 83f
5:50pm 1ft 8s 4s 11 13 mph 1013.7mb 84f 83f
4:50pm 1ft 5s 5s 9 11 mph 1014.2mb 84f 83f
3:50pm 1ft 8s 5s 9
mph
1014.8mb 85f 83f
2:50pm 1ft 8s 4s 4 7 mph 1015.2mb 86f 83f
1:50pm 1ft 5s 4s 2 4 mph 1015.8mb 86f 83f
12:50pm 1ft 8s 4s  -  2 mph 1016.3mb 86f 83f
11:50am 1.3ft 5s 4s  -  2 mph 1016.7mb 86f 83f
10:50am 1.3ft 5s 4s 2 4 mph 1016.5mb 84f 82f
9:50am 1.3ft 5s 4s 2
mph
1016.5mb 83f 82f
8:50am 1.3ft 5s 4s 4
mph
1016mb 82f 82f
7:50am 1.3ft 5s 4s 7 9 mph 1015.4mb 82f 82f
6:50am 1.3ft 3s 4s 11 13 mph 1014.7mb 82f 82f
5:50am 1.6ft 5s 4s 9 11 mph 1014.7mb 82f 82f
4:50am 1.3ft 5s 3s 9
mph
1014.8mb 82f 82f
3:50am 1.3ft 5s 4s 9
mph
1014.9mb 82f 82f
2:50am 1.3ft 5s 3s 9 11 mph 1015.1mb 82f 83f
1:50am 1.3ft 3s 3s 11 13 mph 1015.1mb 82f 83f
12:50am 1.3ft 5s 3s 11 13 mph 1015.5mb 82f 83f
Wed 07/23 11:50pm 1.3ft 5s 3s 11 13 mph 1015.8mb 82f 83f
10:50pm 1ft 5s 4s 11 13 mph 1015.9mb 82f 83f
9:50pm 1ft 5s 4s 11
mph
1015.4mb 83f 83f
8:50pm 1ft 5s 4s 11
mph
1014.4mb 83f 83f
7:50pm 1ft 5s 5s 9 11 mph 1013.9mb 83f 83f
6:50pm 1ft 5s 5s 7 9 mph 1014.1mb 83f 83f
5:50pm 1ft 5s 4s 7
mph
1014.5mb 83f 83f
4:50pm 1ft 5s 4s 7 9 mph 1015.4mb 84f 83f
3:50pm 1ft 6s 4s 4 7 mph 1016.1mb 85f 83f
2:50pm 1ft 6s 4s 2 4 mph 1016.8mb 86f 83f
1:50pm 1ft 5s 4s  -  2 mph 1017.1mb 85f 84f
12:50pm 1ft 6s 4s 2 4 mph 1017.5mb 83f 82f
11:50am 1.3ft 5s 4s 4
mph
1017.6mb 83f 82f
10:50am 1.3ft 6s 4s 4
mph
1017.8mb 83f 82f
9:50am 1.3ft 5s 4s 2 4 mph 1017.7mb 83f 82f
8:50am 1.3ft 6s 4s 4 7 mph 1017.3mb 83f 82f
7:50am 1ft 6s 4s 4
mph
1017mb 83f 82f
6:50am 1ft 5s 4s 7
mph
1016.4mb 83f 82f
5:50am 1.3ft 6s 4s 9
mph
1016.1mb 82f 82f
4:50am 1.6ft 6s 4s 9 11 mph 1015.7mb 82f 82f
3:50am 1.6ft 6s 4s 9 11 mph 1016.1mb 82f 83f
2:50am 1.6ft 5s 4s 11
mph
1015.9mb 82f 83f
12:50am 1.3ft 6s 4s 11 13 mph 1015.8mb 83f 83f
Tue 07/22 11:50pm 1.3ft 6s 4s 11 13 mph 1015.8mb 82f 83f
10:50pm 1.3ft 6s 4s 13 16 mph 1015.7mb 83f 83f
9:50pm 1.3ft 5s 4s 13 16 mph 1015.5mb 83f 84f
8:50pm 1.3ft 6s 4s 13 16 mph 1015.1mb 83f 84f
7:50pm 1.3ft 5s 5s 13
mph
1014.7mb 83f 84f
6:50pm 1.3ft 6s 4s 11 13 mph 1014.7mb 83f 84f
5:50pm 1.3ft 6s 4s 11 13 mph 1015.2mb 83f 84f
4:50pm 1.3ft 5s 4s 11
mph
1015.4mb 84f 84f
3:50pm 1.3ft 6s 4s 9 11 mph 1015.8mb 83f 84f
2:50pm 1.6ft 5s 4s 9
mph
1016.2mb 83f 84f
1:50pm 1.6ft 6s 4s 9
mph
1016.6mb 83f 83f
12:50pm 1.6ft 5s 4s 7 9 mph 1017mb 83f 83f
11:50am 1.6ft 6s 4s 4 7 mph 1017.2mb 83f 83f
10:50am 1.6ft 5s 4s 7
mph
1017.1mb 82f 82f
9:50am 1.6ft 5s 4s 9
mph
1016.6mb 82f 82f
8:50am 2ft 6s 4s 9
mph
1016.3mb 82f 82f
7:50am 2ft 6s 4s 7 9 mph 1016.1mb 81f 82f
6:50am 2ft 6s 4s 9
mph
1015.8mb 81f 82f
5:50am 2ft 6s 4s 7
mph
1015.6mb 81f 82f
4:50am 2.5ft 6s 4s 7 9 mph 1015mb 82f 82f
3:50am 2.5ft 6s 4s 9 11 mph 1015mb 82f 82f
2:50am 2ft 6s 4s 9 11 mph 1014.9mb 82f 82f
1:50am 2.5ft 6s 4s 11 13 mph 1014.8mb 82f 82f
12:50am 2.5ft 6s 4s 13 16 mph 1014.8mb 82f 82f
Mon 07/21 11:50pm 2.5ft 6s 4s 11 13 mph 1015.3mb 82f 82f
10:50pm 2.5ft 6s 4s 13
mph
1015.3mb 82f 83f
9:50pm 2.5ft 7s 4s 13 16 mph 1014.8mb 82f 83f
8:50pm 2.5ft 7s 4s 16 18 mph 1014.5mb 82f 83f
7:50pm 2.5ft 6s 4s 13 16 mph 1014.3mb 83f 83f
4:50pm 3ft 6s 4s 13 16 mph 1014.6mb 83f 83f
3:50pm 3ft 6s 4s 13 16 mph 1014.9mb 83f 83f
2:50pm 2.5ft 6s 4s 11 13 mph 1015.6mb 83f 83f
1:50pm 2.5ft 6s 4s 11 13 mph 1016mb 83f 83f
12:50pm 2.5ft 6s 4s 13 16 mph 1016.3mb 82f 83f
11:50am 3.5ft 6s 5s 13
mph
1016.5mb 82f 83f